Time;durP1;ratioP1;P1;durP2;ratioP2;P2;SDS_P1;SDS_P2;PMS_P1;PMS_P2;Temp;Humidity;BMP_temperature;BMP_pressure;BME280_temperature;BME280_humidity;BME280_pressure;Samples;Min_cycle;Max_cycle;Signal;HPM_P1;HPM_P2
2022/05/02 00:01:31;;;;;;;8.80;5.57;;;13.50;50.60;;;;;;5052385;28;20500;-44
2022/05/02 00:03:59;;;;;;;11.63;6.30;;;13.50;51.10;;;;;;5059540;28;20056;-43
2022/05/02 00:06:28;;;;;;;9.45;6.13;;;13.50;50.70;;;;;;5059548;28;20104;-43
2022/05/02 00:08:55;;;;;;;8.68;5.75;;;13.50;50.70;;;;;;5057704;28;20056;-43
2022/05/02 00:11:22;;;;;;;10.93;5.90;;;13.50;50.70;;;;;;5055643;28;20053;-44
2022/05/02 00:13:52;;;;;;;8.30;5.78;;;13.50;50.70;;;;;;5057077;28;20057;-43
2022/05/02 00:16:19;;;;;;;11.32;7.10;;;13.40;50.80;;;;;;5058340;28;20253;-43
2022/05/02 00:18:46;;;;;;;13.35;8.25;;;13.50;50.80;;;;;;5055826;28;20052;-43
2022/05/02 00:21:14;;;;;;;14.00;8.40;;;13.50;50.80;;;;;;5053667;28;20056;-48
2022/05/02 00:23:41;;;;;;;14.13;7.53;;;13.40;50.90;;;;;;5057823;28;20412;-43
2022/05/02 00:26:09;;;;;;;13.68;7.47;;;13.40;50.90;;;;;;5057026;28;20049;-44
2022/05/02 00:28:37;;;;;;;10.95;6.70;;;13.40;51.00;;;;;;5055613;28;20423;-43
2022/05/02 00:31:05;;;;;;;10.00;6.57;;;13.40;51.10;;;;;;5055482;28;20060;-46
2022/05/02 00:33:33;;;;;;;9.35;6.43;;;13.40;51.40;;;;;;5047453;28;20053;-43
2022/05/02 00:36:00;;;;;;;9.02;5.82;;;13.50;51.50;;;;;;5056153;28;20416;-47
2022/05/02 00:38:28;;;;;;;9.63;5.85;;;13.50;51.40;;;;;;5057560;28;20056;-45
2022/05/02 00:40:55;;;;;;;8.38;5.45;;;13.50;51.40;;;;;;5055187;28;20511;-43
2022/05/02 00:43:23;;;;;;;7.40;5.03;;;13.50;51.40;;;;;;5055830;28;20412;-45
2022/05/02 00:45:50;;;;;;;9.60;6.03;;;13.50;51.50;;;;;;5059525;28;20051;-43
2022/05/02 00:48:20;;;;;;;7.90;5.53;;;13.50;51.50;;;;;;5057322;28;20503;-42
2022/05/02 00:50:48;;;;;;;8.52;5.78;;;13.50;51.60;;;;;;5054747;28;21221;-42
2022/05/02 00:53:18;;;;;;;9.13;6.05;;;13.50;51.50;;;;;;5054600;28;20052;-43
2022/05/02 00:55:46;;;;;;;10.25;6.72;;;13.50;51.50;;;;;;5059908;28;20067;-43
2022/05/02 00:58:16;;;;;;;10.82;7.53;;;13.60;51.50;;;;;;5055687;28;20412;-45
2022/05/02 01:00:44;;;;;;;9.63;7.05;;;13.50;51.40;;;;;;5055789;28;20052;-44
2022/05/02 01:03:13;;;;;;;8.50;5.93;;;13.50;51.40;;;;;;5053840;28;20057;-43
2022/05/02 01:08:26;;;;;;;9.00;6.90;;;13.50;51.50;;;;;;5055283;28;20056;-43
2022/05/02 01:10:55;;;;;;;12.38;6.85;;;13.50;51.60;;;;;;5062416;28;20048;-44
2022/05/02 01:13:33;;;;;;;9.65;6.65;;;13.50;51.70;;;;;;5059150;28;20493;-42
2022/05/02 01:16:00;;;;;;;11.32;6.70;;;13.50;51.90;;;;;;5061286;28;20404;-43
2022/05/02 01:18:28;;;;;;;10.00;6.38;;;13.50;51.80;;;;;;5061330;28;20415;-45
2022/05/02 01:20:56;;;;;;;10.63;6.45;;;13.50;52.00;;;;;;5057859;28;20055;-43
2022/05/02 01:23:24;;;;;;;8.55;6.28;;;13.50;52.10;;;;;;5059250;28;20063;-46
2022/05/02 01:25:51;;;;;;;13.70;8.20;;;13.40;52.10;;;;;;5061057;28;20049;-43
2022/05/02 01:28:19;;;;;;;10.77;6.90;;;13.50;52.10;;;;;;5057019;28;20141;-43
2022/05/02 01:30:46;;;;;;;11.43;6.18;;;13.50;52.10;;;;;;5058004;28;20056;-43
2022/05/02 01:33:14;;;;;;;12.45;8.30;;;13.50;52.10;;;;;;5056087;28;20595;-43
2022/05/02 01:35:41;;;;;;;9.75;6.60;;;13.40;52.10;;;;;;5057755;28;20048;-43
2022/05/02 01:38:12;;;;;;;11.82;7.88;;;13.50;52.20;;;;;;5053245;28;20063;-42
2022/05/02 01:40:40;;;;;;;11.23;7.85;;;13.50;52.40;;;;;;5057720;28;20048;-42
2022/05/02 01:43:07;;;;;;;9.57;6.75;;;13.40;52.30;;;;;;5056265;28;20063;-45
2022/05/02 01:45:35;;;;;;;10.63;7.22;;;13.40;52.20;;;;;;5060898;28;20060;-46
2022/05/02 01:48:02;;;;;;;10.48;7.53;;;13.40;52.30;;;;;;5057896;28;20048;-43
2022/05/02 01:50:29;;;;;;;10.27;7.10;;;13.40;52.40;;;;;;5048306;28;20059;-43
2022/05/02 01:52:57;;;;;;;8.35;6.05;;;13.40;52.40;;;;;;5057822;28;20067;-43
2022/05/02 01:55:26;;;;;;;9.60;5.90;;;13.40;52.40;;;;;;5060401;28;20075;-44
2022/05/02 01:57:53;;;;;;;10.13;6.55;;;13.40;52.40;;;;;;5063211;28;20515;-45
2022/05/02 02:00:21;;;;;;;10.70;7.78;;;13.40;52.40;;;;;;5053746;28;20068;-46
2022/05/02 02:02:48;;;;;;;10.05;7.18;;;13.30;52.30;;;;;;5058899;28;20846;-43
2022/05/02 02:08:01;;;;;;;10.60;6.68;;;13.30;52.30;;;;;;5066750;28;20044;-43
2022/05/02 02:10:29;;;;;;;10.02;6.85;;;13.30;52.30;;;;;;5057842;28;20420;-43
2022/05/02 02:12:57;;;;;;;10.63;6.95;;;13.30;52.40;;;;;;5057069;28;20052;-43
2022/05/02 02:15:24;;;;;;;10.25;6.53;;;13.20;52.40;;;;;;5060141;28;20405;-48
2022/05/02 02:17:52;;;;;;;10.30;7.35;;;13.20;52.40;;;;;;5057822;28;20056;-43
2022/05/02 02:20:19;;;;;;;10.15;7.63;;;13.20;52.40;;;;;;5057712;28;20412;-43
2022/05/02 02:22:47;;;;;;;10.30;7.30;;;13.10;52.40;;;;;;5052892;28;20052;-43
2022/05/02 02:25:15;;;;;;;10.45;7.45;;;13.10;52.40;;;;;;5060614;28;20059;-44
2022/05/02 02:27:44;;;;;;;13.10;7.82;;;13.10;52.50;;;;;;5061438;28;20075;-43
2022/05/02 02:30:14;;;;;;;9.52;7.35;;;13.00;52.50;;;;;;5052879;28;20045;-44
2022/05/02 02:32:42;;;;;;;12.25;7.88;;;13.00;52.60;;;;;;5055146;28;20049;-43
2022/05/02 02:35:10;;;;;;;11.90;8.00;;;13.00;52.60;;;;;;5060077;28;20063;-43
2022/05/02 02:37:37;;;;;;;9.50;7.63;;;12.90;52.60;;;;;;5061043;28;20063;-43
2022/05/02 02:40:09;;;;;;;11.77;8.57;;;12.90;52.70;;;;;;5055773;28;20057;-46
2022/05/02 02:42:38;;;;;;;13.02;9.25;;;12.80;52.70;;;;;;5057715;28;20060;-46
2022/05/02 02:45:08;;;;;;;9.95;7.60;;;12.80;52.70;;;;;;5059304;28;20055;-43
2022/05/02 02:47:36;;;;;;;9.63;7.13;;;12.80;52.80;;;;;;5059501;28;20041;-48
2022/05/02 02:50:03;;;;;;;18.23;9.35;;;12.70;52.80;;;;;;5056641;28;20494;-43
2022/05/02 02:52:31;;;;;;;13.07;8.45;;;12.70;52.90;;;;;;5055685;28;20435;-44
2022/05/02 02:54:58;;;;;;;11.05;8.23;;;12.70;53.00;;;;;;5062103;28;20060;-43
2022/05/02 02:57:25;;;;;;;11.23;8.10;;;12.70;53.10;;;;;;5057805;28;20481;-43
2022/05/02 02:59:53;;;;;;;10.27;7.70;;;12.60;53.20;;;;;;5057059;28;20052;-42
2022/05/02 03:02:22;;;;;;;10.20;7.53;;;12.60;53.30;;;;;;5055341;28;20056;-43
2022/05/02 03:07:35;;;;;;;11.13;8.20;;;12.60;53.40;;;;;;5067851;28;20059;-43
2022/05/02 03:10:05;;;;;;;10.35;7.40;;;12.60;53.30;;;;;;5052148;28;20060;-43
2022/05/02 03:12:32;;;;;;;10.13;7.30;;;12.60;53.30;;;;;;5055100;28;20404;-43
2022/05/02 03:15:00;;;;;;;10.70;7.25;;;12.60;53.40;;;;;;5060795;28;20048;-43
2022/05/02 03:17:28;;;;;;;14.65;7.88;;;12.60;53.50;;;;;;5057131;28;20053;-44
2022/05/02 03:19:56;;;;;;;14.35;9.65;;;12.60;53.60;;;;;;5055413;28;20052;-43
2022/05/02 03:22:23;;;;;;;18.15;8.52;;;12.50;53.60;;;;;;5053550;28;20500;-43
2022/05/02 03:24:51;;;;;;;12.38;7.75;;;12.50;53.70;;;;;;5061857;28;20060;-44
2022/05/02 03:27:18;;;;;;;9.60;6.75;;;12.60;53.80;;;;;;5054881;28;20059;-43
2022/05/02 03:29:46;;;;;;;10.85;7.65;;;12.50;53.80;;;;;;5057007;28;20048;-43
2022/05/02 03:32:13;;;;;;;10.73;7.38;;;12.50;53.90;;;;;;5052432;28;20068;-43
2022/05/02 03:34:43;;;;;;;9.98;7.07;;;12.50;54.00;;;;;;5056750;28;20053;-43
2022/05/02 03:37:10;;;;;;;12.45;8.43;;;12.50;54.10;;;;;;5058219;28;20053;-43
2022/05/02 03:39:38;;;;;;;16.15;9.80;;;12.50;54.00;;;;;;5058924;28;20485;-43
2022/05/02 03:42:06;;;;;;;15.95;9.52;;;12.50;54.00;;;;;;5054646;28;20059;-45
2022/05/02 03:44:34;;;;;;;11.45;9.05;;;12.50;53.90;;;;;;5059191;28;20055;-43
2022/05/02 03:47:01;;;;;;;13.85;8.43;;;12.50;53.90;;;;;;5056525;28;20052;-44
2022/05/02 03:49:29;;;;;;;11.93;8.30;;;12.50;53.90;;;;;;5054663;28;20052;-43
2022/05/02 03:51:57;;;;;;;14.30;9.07;;;12.50;54.00;;;;;;5052692;28;20492;-43
2022/05/02 03:54:25;;;;;;;14.35;9.38;;;12.50;54.20;;;;;;5059926;28;20060;-43
2022/05/02 03:56:52;;;;;;;15.73;10.25;;;12.50;54.10;;;;;;5058432;28;20059;-42
2022/05/02 03:59:20;;;;;;;16.67;8.40;;;12.50;54.00;;;;;;5057312;28;20500;-43
2022/05/02 04:01:47;;;;;;;13.48;8.55;;;12.50;54.10;;;;;;5051582;28;20060;-42
2022/05/02 04:04:14;;;;;;;14.88;8.57;;;12.40;54.20;;;;;;5056454;28;20131;-42
2022/05/02 04:06:42;;;;;;;11.18;8.07;;;12.40;54.30;;;;;;5058502;28;20530;-43
2022/05/02 04:09:11;;;;;;;11.48;8.15;;;12.50;54.50;;;;;;5050132;28;20056;-44
2022/05/02 04:11:38;;;;;;;12.60;8.57;;;12.50;54.60;;;;;;5046515;28;20112;-43
2022/05/02 04:14:06;;;;;;;12.90;9.65;;;12.50;54.60;;;;;;5059965;28;20056;-43
2022/05/02 04:16:33;;;;;;;12.30;8.75;;;12.50;54.70;;;;;;5041537;28;20064;-43
2022/05/02 04:19:01;;;;;;;13.32;9.93;;;12.50;54.70;;;;;;5044449;28;20048;-42
2022/05/02 04:21:30;;;;;;;13.27;9.13;;;12.50;54.80;;;;;;5052485;28;20068;-43
2022/05/02 04:23:57;;;;;;;11.85;8.55;;;12.50;54.80;;;;;;5052067;28;20063;-43
2022/05/02 04:26:26;;;;;;;13.30;7.53;;;12.50;54.80;;;;;;5058441;28;20071;-43
2022/05/02 04:28:54;;;;;;;10.40;7.90;;;12.50;55.00;;;;;;5057444;28;20049;-49
2022/05/02 04:31:21;;;;;;;12.82;8.55;;;12.50;55.00;;;;;;5058286;28;20489;-43
2022/05/02 04:33:48;;;;;;;11.50;7.82;;;12.50;55.00;;;;;;5053032;28;20053;-43
2022/05/02 04:36:16;;;;;;;11.23;8.75;;;12.60;55.00;;;;;;5060753;28;20531;-45
2022/05/02 04:38:44;;;;;;;15.60;9.05;;;12.60;54.90;;;;;;5057810;28;20087;-43
2022/05/02 04:41:14;;;;;;;11.02;8.05;;;12.60;54.80;;;;;;5058959;28;20393;-43
2022/05/02 04:43:43;;;;;;;10.50;8.13;;;12.60;54.90;;;;;;5060136;28;20130;-45
2022/05/02 04:46:10;;;;;;;11.43;8.27;;;12.60;54.90;;;;;;5060960;28;20055;-45
2022/05/02 04:48:38;;;;;;;11.02;8.63;;;12.60;55.00;;;;;;5061518;28;20052;-43
2022/05/02 04:51:05;;;;;;;10.68;8.18;;;12.60;55.00;;;;;;5060892;28;20647;-43
2022/05/02 04:53:34;;;;;;;14.35;9.40;;;12.60;55.10;;;;;;5057671;28;20063;-44
2022/05/02 04:56:02;;;;;;;11.13;8.52;;;12.70;55.20;;;;;;5055606;28;20056;-45
2022/05/02 04:58:29;;;;;;;17.98;10.00;;;12.60;55.20;;;;;;5056313;28;20048;-45
2022/05/02 05:00:58;;;;;;;12.13;8.82;;;12.70;55.70;;;;;;5056248;28;20048;-43
2022/05/02 05:03:25;;;;;;;10.27;8.32;;;12.70;55.20;;;;;;5053897;28;20059;-43
2022/05/02 05:05:55;;;;;;;13.90;9.00;;;12.70;55.30;;;;;;5043870;28;20420;-46
2022/05/02 05:08:22;;;;;;;14.35;8.90;;;12.80;55.50;;;;;;5060519;28;20063;-43
2022/05/02 05:10:58;;;;;;;14.02;10.00;;;12.70;55.40;;;;;;5057126;28;20496;-44
2022/05/02 05:13:28;;;;;;;16.15;10.73;;;12.80;55.60;;;;;;5054697;28;20048;-45
2022/05/02 05:16:29;;;;;;;14.77;10.45;;;12.80;55.30;;;;;;5053007;28;20051;-43
2022/05/02 05:19:10;;;;;;;13.70;9.82;;;12.80;55.20;;;;;;5051968;28;20489;-46
2022/05/02 05:21:54;;;;;;;17.33;10.75;;;12.90;55.30;;;;;;5055505;28;20059;-43
2022/05/02 05:25:03;;;;;;;14.98;8.80;;;12.90;55.60;;;;;;5056727;28;20053;-42
2022/05/02 05:27:53;;;;;;;16.13;10.15;;;12.90;55.50;;;;;;5020341;28;20416;-43
2022/05/02 05:30:21;;;;;;;19.35;12.35;;;12.90;55.30;;;;;;5050895;28;20055;-43
2022/05/02 05:33:02;;;;;;;15.05;10.88;;;13.00;55.20;;;;;;5049928;28;20463;-43
2022/05/02 05:35:44;;;;;;;16.45;10.20;;;13.00;55.30;;;;;;5060703;28;20057;-43
2022/05/02 05:38:12;;;;;;;15.27;10.32;;;13.10;55.60;;;;;;5061905;28;20060;-43
2022/05/02 05:40:42;;;;;;;19.58;11.43;;;13.00;55.40;;;;;;5057213;28;20059;-44
2022/05/02 05:43:21;;;;;;;15.00;10.90;;;13.00;55.40;;;;;;5052664;28;20056;-43
2022/05/02 05:46:06;;;;;;;15.18;10.20;;;13.10;55.50;;;;;;5058286;28;20048;-44
2022/05/02 05:48:51;;;;;;;16.77;10.57;;;13.10;55.70;;;;;;5061256;28;20472;-43
2022/05/02 05:51:34;;;;;;;17.90;11.68;;;13.10;55.80;;;;;;5051474;28;20420;-44
2022/05/02 05:54:27;;;;;;;16.42;10.77;;;13.10;55.90;;;;;;5059944;28;20515;-43
2022/05/02 05:57:03;;;;;;;20.10;12.35;;;13.10;56.00;;;;;;5062039;28;20056;-43
2022/05/02 05:59:42;;;;;;;22.38;12.48;;;13.10;55.80;;;;;;5057677;28;20059;-45
2022/05/02 06:02:18;;;;;;;17.50;11.45;;;13.10;55.80;;;;;;5047703;28;20055;-44
2022/05/02 06:04:50;;;;;;;17.40;11.45;;;13.10;55.90;;;;;;5048148;28;20056;-43
2022/05/02 06:07:19;;;;;;;17.25;11.80;;;13.10;55.90;;;;;;5061519;28;20397;-43
2022/05/02 06:09:49;;;;;;;19.52;12.73;;;13.10;56.00;;;;;;5058955;28;20055;-43
2022/05/02 06:12:20;;;;;;;20.50;12.75;;;13.10;56.50;;;;;;5056730;28;20531;-44
2022/05/02 06:20:39;;;;;;;19.45;13.30;;;13.00;56.60;;;;;;5058403;28;20063;-43
2022/05/02 06:23:10;;;;;;;21.55;13.00;;;13.00;57.00;;;;;;5056948;28;20059;-42
2022/05/02 06:25:38;;;;;;;20.23;13.13;;;13.00;57.40;;;;;;5060421;28;20057;-42
2022/05/02 06:28:10;;;;;;;19.83;13.30;;;13.00;57.30;;;;;;5058915;28;20142;-42
2022/05/02 06:30:40;;;;;;;18.45;13.02;;;13.10;57.50;;;;;;5056860;28;20053;-43
2022/05/02 06:33:12;;;;;;;19.45;14.18;;;13.10;57.60;;;;;;5051485;28;20053;-43
2022/05/02 06:35:56;;;;;;;23.83;13.13;;;13.10;57.40;;;;;;5057640;28;20056;-43
2022/05/02 06:38:35;;;;;;;20.95;13.55;;;13.20;57.40;;;;;;5055794;28;20048;-43
2022/05/02 06:41:11;;;;;;;21.88;13.52;;;13.30;57.30;;;;;;5059530;28;20052;-44
2022/05/02 06:43:49;;;;;;;20.02;13.57;;;13.30;57.10;;;;;;5056896;28;20060;-43
2022/05/02 06:46:19;;;;;;;20.98;12.63;;;13.30;57.20;;;;;;5060032;28;20728;-43
2022/05/02 06:48:50;;;;;;;18.05;13.43;;;13.30;57.30;;;;;;5060163;28;20138;-45
2022/05/02 06:51:24;;;;;;;18.08;12.43;;;13.40;57.30;;;;;;5060601;28;20060;-43
2022/05/02 06:54:16;;;;;;;20.03;12.67;;;13.50;57.40;;;;;;5057087;28;20416;-43
2022/05/02 06:56:45;;;;;;;18.45;12.98;;;13.50;57.80;;;;;;5059661;28;20500;-43
2022/05/02 06:59:36;;;;;;;25.40;13.18;;;13.50;57.40;;;;;;5058653;28;20052;-43
2022/05/02 07:02:20;;;;;;;17.33;11.90;;;13.60;57.50;;;;;;5053049;28;20059;-43
2022/05/02 07:04:52;;;;;;;24.17;12.10;;;13.60;56.70;;;;;;5053360;28;20052;-47
2022/05/02 07:07:46;;;;;;;18.38;11.25;;;13.60;56.90;;;;;;5061954;28;20492;-43
2022/05/02 07:10:18;;;;;;;23.23;11.35;;;13.70;56.80;;;;;;5059023;28;20699;-43
2022/05/02 07:12:54;;;;;;;16.88;11.15;;;13.70;56.40;;;;;;5053417;28;20515;-43
2022/05/02 07:15:28;;;;;;;16.35;11.15;;;13.80;55.80;;;;;;5061814;28;20055;-43
2022/05/02 07:18:03;;;;;;;;;;;13.80;55.90;;;;;;5060776;28;20048;-43
2022/05/02 07:20:39;;;;;;;20.33;11.82;;;13.80;56.10;;;;;;5054511;28;19927;-43
2022/05/02 07:23:25;;;;;;;18.10;10.70;;;13.80;55.90;;;;;;5055021;28;20061;-43
2022/05/02 07:25:58;;;;;;;17.40;9.95;;;13.80;56.00;;;;;;5059075;28;20077;-43
2022/05/02 07:28:33;;;;;;;12.85;8.73;;;13.90;56.00;;;;;;5059280;28;20055;-45
2022/05/02 07:31:02;;;;;;;11.95;7.93;;;13.90;55.60;;;;;;5057615;28;20527;-43
2022/05/02 07:33:35;;;;;;;13.50;7.90;;;14.00;55.60;;;;;;5051889;28;20048;-43
2022/05/02 07:36:04;;;;;;;14.55;8.43;;;14.00;55.40;;;;;;5058135;28;20060;-44
2022/05/02 07:38:35;;;;;;;12.93;8.20;;;14.10;55.50;;;;;;5054905;28;20053;-42
2022/05/02 07:41:25;;;;;;;15.98;8.77;;;14.20;55.10;;;;;;5058355;28;20052;-43
2022/05/02 07:43:59;;;;;;;17.58;8.77;;;14.30;54.50;;;;;;5060507;28;20052;-42
2022/05/02 07:46:31;;;;;;;14.35;9.23;;;14.40;54.10;;;;;;5056802;28;20048;-44
2022/05/02 07:49:00;;;;;;;16.15;9.10;;;14.40;54.40;;;;;;5050977;28;20404;-43
2022/05/02 07:51:29;;;;;;;21.40;8.65;;;14.50;54.30;;;;;;5049039;28;20390;-44
2022/05/02 07:53:58;;;;;;;15.00;8.23;;;14.50;54.20;;;;;;5059233;28;20059;-42
2022/05/02 07:56:28;;;;;;;15.88;8.65;;;14.60;54.00;;;;;;5048723;28;20059;-42
2022/05/02 07:58:56;;;;;;;13.18;7.72;;;14.60;54.50;;;;;;5056533;28;20500;-42
2022/05/02 08:01:24;;;;;;;14.38;8.18;;;14.70;54.50;;;;;;5059448;28;20060;-43
2022/05/02 08:03:53;;;;;;;14.32;8.27;;;14.80;54.10;;;;;;5057027;28;20060;-44
2022/05/02 08:06:46;;;;;;;16.15;8.60;;;14.80;53.50;;;;;;5058062;28;20599;-43
2022/05/02 08:09:35;;;;;;;11.93;7.10;;;14.90;53.50;;;;;;5052085;28;20421;-44
2022/05/02 08:12:10;;;;;;;13.65;7.70;;;15.00;53.90;;;;;;5053194;28;20653;-42
2022/05/02 08:14:44;;;;;;;24.08;8.82;;;15.00;53.90;;;;;;5056141;28;20407;-44
2022/05/02 08:17:22;;;;;;;9.30;6.90;;;15.10;53.00;;;;;;5061537;28;20416;-43
2022/05/02 08:20:00;;;;;;;10.38;7.18;;;15.10;53.20;;;;;;5058434;28;20049;-46
2022/05/02 08:28:31;;;;;;;14.85;8.15;;;15.30;53.60;;;;;;5062000;28;20075;-42
2022/05/02 08:31:12;;;;;;;15.27;7.95;;;15.40;53.50;;;;;;5054003;28;20515;-45
2022/05/02 08:33:56;;;;;;;14.15;7.80;;;15.50;53.50;;;;;;5046568;28;20060;-43
2022/05/02 08:36:31;;;;;;;23.98;9.20;;;15.60;53.10;;;;;;5049537;28;20488;-42
2022/05/02 08:39:03;;;;;;;21.48;9.48;;;15.70;52.90;;;;;;5047536;28;20401;-43
2022/05/02 08:42:08;;;;;;;13.80;8.77;;;15.80;52.70;;;;;;5050686;28;20052;-43
2022/05/02 08:45:14;;;;;;;13.73;8.70;;;15.80;52.10;;;;;;5057391;28;20063;-42
2022/05/02 08:48:33;;;;;;;17.27;9.45;;;15.80;51.90;;;;;;5055252;28;20057;-43
2022/05/02 08:51:42;;;;;;;11.05;8.38;;;15.80;51.50;;;;;;5027531;28;20049;-45
2022/05/02 08:54:38;;;;;;;14.40;9.00;;;15.90;51.20;;;;;;5033825;28;20060;-46
2022/05/02 08:57:50;;;;;;;13.45;8.40;;;15.90;51.80;;;;;;5044860;28;20060;-42
2022/05/02 09:00:28;;;;;;;13.27;7.93;;;16.00;51.30;;;;;;5053925;28;20503;-43
2022/05/02 09:03:37;;;;;;;15.05;9.77;;;16.00;51.70;;;;;;5049087;28;20056;-43
2022/05/02 09:06:35;;;;;;;13.88;8.13;;;16.00;51.70;;;;;;5052267;28;20063;-43
2022/05/02 09:09:29;;;;;;;17.20;9.82;;;16.10;52.10;;;;;;5036218;28;20068;-44
2022/05/02 09:12:36;;;;;;;13.65;8.13;;;16.20;52.00;;;;;;5037198;28;20515;-42
2022/05/02 09:15:25;;;;;;;14.55;9.20;;;16.20;51.90;;;;;;5042473;28;21083;-42
2022/05/02 09:18:13;;;;;;;19.13;8.90;;;16.20;52.10;;;;;;5036977;28;20635;-44
2022/05/02 09:20:50;;;;;;;13.57;7.80;;;16.30;52.00;;;;;;5036928;28;20048;-42
2022/05/02 09:24:02;;;;;;;14.00;8.40;;;16.40;52.00;;;;;;5032456;28;20060;-42
2022/05/02 09:27:05;;;;;;;18.17;9.63;;;16.50;51.30;;;;;;5044519;28;20056;-46
2022/05/02 09:30:11;;;;;;;12.73;8.48;;;16.50;50.80;;;;;;5046886;28;20064;-45
2022/05/02 09:33:07;;;;;;;17.05;9.52;;;16.60;50.70;;;;;;5052907;28;20385;-43
2022/05/02 09:35:35;;;;;;;15.45;9.25;;;16.60;49.90;;;;;;5054369;28;20053;-43
2022/05/02 09:38:23;;;;;;;18.25;9.63;;;16.70;50.50;;;;;;5058810;28;20067;-43
2022/05/02 09:40:59;;;;;;;13.90;9.30;;;16.70;49.50;;;;;;5055050;28;20052;-42
2022/05/02 09:49:47;;;;;;;16.85;9.45;;;16.80;50.10;;;;;;5039094;28;20051;-42
2022/05/02 09:52:16;;;;;;;11.85;8.93;;;16.90;49.80;;;;;;5050869;28;20059;-45
2022/05/02 09:58:26;;;;;;;15.60;8.60;;;17.10;50.50;;;;;;5025607;28;20417;-43
2022/05/02 10:01:11;;;;;;;17.30;9.57;;;17.10;50.00;;;;;;5029843;28;20064;-42
2022/05/02 10:03:41;;;;;;;17.92;9.77;;;17.20;49.70;;;;;;5036803;28;20057;-43
2022/05/02 10:06:15;;;;;;;18.58;11.05;;;17.20;49.20;;;;;;5048972;28;20048;-43
2022/05/02 10:08:56;;;;;;;13.88;9.88;;;17.20;49.50;;;;;;5038386;28;20417;-43
2022/05/02 10:12:01;;;;;;;16.90;9.52;;;17.20;49.20;;;;;;5055568;28;20111;-42
2022/05/02 10:14:49;;;;;;;14.13;9.65;;;17.30;49.50;;;;;;5037383;28;20516;-42
2022/05/02 10:17:32;;;;;;;21.13;11.05;;;17.40;49.40;;;;;;5047160;28;20060;-43
2022/05/02 10:20:15;;;;;;;17.60;9.63;;;17.40;49.00;;;;;;5045765;28;20079;-43
2022/05/02 10:22:58;;;;;;;13.88;8.93;;;17.50;50.00;;;;;;5047640;28;20052;-43
2022/05/02 10:25:41;;;;;;;18.80;9.75;;;17.60;50.30;;;;;;5060971;28;20526;-42
2022/05/02 10:28:36;;;;;;;17.35;10.18;;;17.70;49.90;;;;;;5038316;28;20057;-43
2022/05/02 10:31:06;;;;;;;16.80;9.52;;;17.70;49.20;;;;;;5033952;28;20052;-43
2022/05/02 10:33:37;;;;;;;14.90;9.70;;;17.80;48.70;;;;;;5042720;28;20064;-42
2022/05/02 10:36:06;;;;;;;20.70;10.07;;;17.90;48.60;;;;;;5037600;28;20060;-44
2022/05/02 10:38:45;;;;;;;16.88;10.45;;;17.90;49.00;;;;;;5051709;28;20052;-43
2022/05/02 10:41:16;;;;;;;16.67;9.95;;;18.00;47.80;;;;;;5052109;28;20051;-44
2022/05/02 10:43:50;;;;;;;13.43;8.25;;;18.00;48.60;;;;;;5053638;28;20052;-43
2022/05/02 10:46:19;;;;;;;17.77;9.57;;;18.00;48.40;;;;;;5047905;28;20053;-42
2022/05/02 10:48:54;;;;;;;14.93;10.80;;;18.10;48.30;;;;;;5051217;28;20052;-43
2022/05/02 10:51:35;;;;;;;13.88;9.43;;;18.20;47.80;;;;;;5043227;28;20060;-44
2022/05/02 10:54:27;;;;;;;15.98;9.85;;;18.30;48.50;;;;;;5048238;28;20056;-43
2022/05/02 10:56:59;;;;;;;12.88;9.38;;;18.30;48.00;;;;;;5051134;28;20053;-43
2022/05/02 10:59:31;;;;;;;14.10;8.48;;;18.50;48.40;;;;;;5035109;28;20424;-43
2022/05/02 11:02:24;;;;;;;13.35;8.90;;;18.50;48.30;;;;;;5044500;28;20075;-42
2022/05/02 11:05:08;;;;;;;17.30;9.25;;;18.50;48.00;;;;;;5036130;28;20065;-43
2022/05/02 11:08:06;;;;;;;16.25;8.75;;;18.60;48.60;;;;;;5059636;28;20056;-42
2022/05/02 11:10:45;;;;;;;13.02;8.52;;;18.70;48.10;;;;;;5052782;28;20052;-43
2022/05/02 11:13:21;;;;;;;13.77;9.52;;;18.80;47.90;;;;;;5057307;28;20063;-43
2022/05/02 11:16:09;;;;;;;12.98;8.20;;;18.90;47.60;;;;;;5061030;28;20061;-43
2022/05/02 11:21:51;;;;;;;18.38;9.80;;;19.10;47.80;;;;;;5064746;28;20519;-43
2022/05/02 11:24:39;;;;;;;18.08;9.00;;;19.20;47.30;;;;;;5058960;28;20051;-43
2022/05/02 11:27:38;;;;;;;10.70;7.80;;;19.20;48.60;;;;;;5057762;28;20056;-43
2022/05/02 11:30:07;;;;;;;12.40;8.15;;;19.30;47.30;;;;;;5060675;28;20071;-43
2022/05/02 11:32:40;;;;;;;11.73;7.53;;;19.40;46.70;;;;;;5053807;28;20500;-43
2022/05/02 11:35:13;;;;;;;14.75;8.02;;;19.40;46.90;;;;;;5058470;28;20053;-44
2022/05/02 11:37:51;;;;;;;12.10;7.95;;;19.50;47.00;;;;;;5058937;28;20056;-43
2022/05/02 11:40:19;;;;;;;17.50;9.07;;;19.60;46.40;;;;;;5058789;28;20063;-43
2022/05/02 11:42:49;;;;;;;9.30;7.30;;;19.60;45.50;;;;;;5056629;28;20049;-44
2022/05/02 11:45:18;;;;;;;10.32;7.18;;;19.60;44.90;;;;;;5058524;28;20052;-43
2022/05/02 11:48:08;;;;;;;11.10;7.85;;;19.70;45.30;;;;;;5057843;28;20071;-43
2022/05/02 11:50:44;;;;;;;14.52;7.57;;;19.70;44.70;;;;;;5053461;28;20056;-43
2022/05/02 11:53:14;;;;;;;11.93;7.68;;;19.70;44.20;;;;;;5052586;28;20079;-43
2022/05/02 11:55:43;;;;;;;13.02;7.13;;;19.70;44.20;;;;;;5061454;28;20504;-43
2022/05/02 11:58:21;;;;;;;12.48;8.18;;;19.70;44.40;;;;;;5058407;28;20052;-43
2022/05/02 12:00:53;;;;;;;11.73;7.57;;;19.70;43.80;;;;;;5057326;28;20488;-43
2022/05/02 12:03:25;;;;;;;8.85;6.85;;;19.70;44.10;;;;;;5044840;28;20083;-47
2022/05/02 12:05:55;;;;;;;15.30;6.97;;;19.70;44.90;;;;;;5039010;28;20053;-43
2022/05/02 12:08:26;;;;;;;12.75;7.40;;;19.80;45.40;;;;;;5055090;28;20056;-43
2022/05/02 12:11:06;;;;;;;8.77;6.95;;;19.90;44.70;;;;;;5058868;28;20546;-43
2022/05/02 12:13:38;;;;;;;13.98;7.60;;;20.00;44.70;;;;;;5052517;28;20055;-47
2022/05/02 12:16:10;;;;;;;14.40;8.52;;;20.10;44.70;;;;;;5056487;28;20052;-43
2022/05/02 12:18:42;;;;;;;14.95;7.55;;;20.10;43.40;;;;;;5056773;28;20068;-44
2022/05/02 12:21:15;;;;;;;12.32;7.57;;;20.10;43.30;;;;;;5059922;28;20055;-46
2022/05/02 12:23:46;;;;;;;16.60;8.00;;;20.10;44.00;;;;;;5055340;28;20048;-43
2022/05/02 12:26:19;;;;;;;11.35;7.43;;;20.20;44.20;;;;;;5058518;28;20063;-43
2022/05/02 12:28:51;;;;;;;13.60;7.95;;;20.20;43.50;;;;;;5055497;28;20060;-43
2022/05/02 12:31:20;;;;;;;12.38;8.35;;;20.30;43.00;;;;;;5058628;28;20056;-43
2022/05/02 12:33:51;;;;;;;13.32;7.97;;;20.30;44.70;;;;;;5047876;28;20061;-43
2022/05/02 12:36:20;;;;;;;8.63;7.05;;;20.30;43.90;;;;;;5058727;28;20056;-43
2022/05/02 12:38:54;;;;;;;19.08;8.32;;;20.40;44.00;;;;;;5060543;28;20057;-43
2022/05/02 12:41:27;;;;;;;9.13;7.57;;;20.50;43.00;;;;;;5060180;28;20052;-43
2022/05/02 12:44:07;;;;;;;11.15;7.40;;;20.60;43.80;;;;;;5037679;28;20061;-43
2022/05/02 12:46:39;;;;;;;12.35;7.20;;;20.60;43.50;;;;;;5034469;28;20527;-45
2022/05/02 12:49:11;;;;;;;9.60;6.93;;;20.70;43.40;;;;;;5034066;28;20048;-44
2022/05/02 12:51:39;;;;;;;11.95;8.35;;;20.80;43.60;;;;;;5041513;28;20060;-44
2022/05/02 12:54:12;;;;;;;14.50;9.80;;;20.80;42.90;;;;;;5037672;28;20496;-43
2022/05/02 13:00:30;;;;;;;12.15;8.27;;;20.80;41.70;;;;;;5037615;28;20477;-43
2022/05/02 13:02:34;;;;;;;16.40;9.15;;;20.90;42.30;;;;;;5036797;28;20063;-43
2022/05/02 13:05:06;;;;;;;10.15;6.97;;;20.90;40.80;;;;;;5053285;28;20061;-45
2022/05/02 13:07:44;;;;;;;11.45;7.10;;;20.90;41.70;;;;;;5040680;28;20436;-45
2022/05/02 13:10:20;;;;;;;11.13;7.18;;;20.90;41.40;;;;;;5053393;28;20866;-43
2022/05/02 13:12:57;;;;;;;12.32;7.85;;;20.90;41.40;;;;;;5055492;28;20639;-42
2022/05/02 13:15:27;;;;;;;14.63;9.70;;;21.00;42.00;;;;;;5060392;28;20068;-47
2022/05/02 13:17:58;;;;;;;10.25;7.20;;;21.00;41.80;;;;;;5052038;28;20059;-44
2022/05/02 13:20:28;;;;;;;13.35;8.88;;;21.00;41.70;;;;;;5057704;28;20056;-42
2022/05/02 13:23:07;;;;;;;11.38;7.65;;;21.10;41.20;;;;;;5052016;28;20060;-43
2022/05/02 13:26:29;;;;;;;12.88;7.60;;;21.10;41.50;;;;;;5059701;28;20059;-43
2022/05/02 13:29:07;;;;;;;13.52;9.50;;;21.20;41.20;;;;;;5052867;28;20052;-44
2022/05/02 13:31:45;;;;;;;16.00;9.93;;;21.30;41.50;;;;;;5048929;28;21467;-44
2022/05/02 13:34:21;;;;;;;14.63;10.13;;;21.40;41.40;;;;;;5054868;28;20048;-43
2022/05/02 13:36:52;;;;;;;17.13;10.38;;;21.50;41.20;;;;;;5060491;28;20061;-42
2022/05/02 13:39:23;;;;;;;17.85;9.27;;;21.60;40.50;;;;;;5059842;28;20071;-42
2022/05/02 13:42:00;;;;;;;16.40;8.63;;;21.80;41.20;;;;;;5057480;28;20741;-47
2022/05/02 13:44:36;;;;;;;13.48;8.48;;;21.90;41.20;;;;;;5058352;28;20404;-43
2022/05/02 13:47:11;;;;;;;13.25;8.10;;;22.00;39.90;;;;;;5047620;28;20044;-44
2022/05/02 13:50:00;;;;;;;16.27;9.07;;;22.10;40.70;;;;;;5052352;28;20059;-44